sensor_id;sensor_type;location;lat;lon;timestamp;pressure;altitude;pressure_sealevel;temperature;humidity
4858;BME280;58975;51.978;8.472;2023-08-20T00:04:48;101047.84;;;19.71;100.00
4858;BME280;58975;51.978;8.472;2023-08-20T00:09:44;101020.81;;;19.71;100.00
4858;BME280;58975;51.978;8.472;2023-08-20T00:14:58;101023.69;;;19.70;100.00
4858;BME280;58975;51.978;8.472;2023-08-20T00:20:02;101029.25;;;19.68;100.00
4858;BME280;58975;51.978;8.472;2023-08-20T00:25:05;101029.59;;;19.65;100.00
4858;BME280;58975;51.978;8.472;2023-08-20T00:30:02;101013.16;;;19.43;100.00
4858;BME280;58975;51.978;8.472;2023-08-20T00:35:00;100974.66;;;19.32;100.00
4858;BME280;58975;51.978;8.472;2023-08-20T00:39:57;100947.25;;;19.19;100.00
4858;BME280;58975;51.978;8.472;2023-08-20T00:44:54;100914.16;;;19.09;100.00
4858;BME280;58975;51.978;8.472;2023-08-20T00:49:50;100899.63;;;19.02;100.00
4858;BME280;58975;51.978;8.472;2023-08-20T00:54:47;100891.88;;;18.99;100.00
4858;BME280;58975;51.978;8.472;2023-08-20T00:59:47;100892.56;;;18.93;100.00
4858;BME280;58975;51.978;8.472;2023-08-20T01:04:46;100888.31;;;18.90;100.00
4858;BME280;58975;51.978;8.472;2023-08-20T01:10:09;100882.75;;;18.84;100.00
4858;BME280;58975;51.978;8.472;2023-08-20T01:15:10;100877.69;;;18.81;100.00
4858;BME280;58975;51.978;8.472;2023-08-20T01:20:10;100883.38;;;18.78;100.00
4858;BME280;58975;51.978;8.472;2023-08-20T01:30:23;100880.31;;;18.65;100.00
4858;BME280;58975;51.978;8.472;2023-08-20T01:35:24;100874.22;;;18.63;100.00
4858;BME280;58975;51.978;8.472;2023-08-20T01:40:20;100881.66;;;18.61;100.00
4858;BME280;58975;51.978;8.472;2023-08-20T01:45:17;100876.09;;;18.54;100.00
4858;BME280;58975;51.978;8.472;2023-08-20T01:50:15;100886.28;;;18.51;100.00
4858;BME280;58975;51.978;8.472;2023-08-20T01:55:11;100895.47;;;18.58;100.00
4858;BME280;58975;51.978;8.472;2023-08-20T02:00:08;100890.03;;;18.50;100.00
4858;BME280;58975;51.978;8.472;2023-08-20T02:05:05;100893.19;;;18.45;100.00
4858;BME280;58975;51.978;8.472;2023-08-20T02:10:02;100887.09;;;18.43;100.00
4858;BME280;58975;51.978;8.472;2023-08-20T02:14:59;100896.81;;;18.28;100.00
4858;BME280;58975;51.978;8.472;2023-08-20T02:19:55;100892.50;;;18.09;100.00
4858;BME280;58975;51.978;8.472;2023-08-20T02:24:52;100893.56;;;18.16;100.00
4858;BME280;58975;51.978;8.472;2023-08-20T02:29:48;100921.88;;;18.20;100.00
4858;BME280;58975;51.978;8.472;2023-08-20T02:34:49;100945.16;;;18.21;100.00
4858;BME280;58975;51.978;8.472;2023-08-20T02:39:46;100947.38;;;18.26;100.00
4858;BME280;58975;51.978;8.472;2023-08-20T02:44:42;100953.28;;;18.29;100.00
4858;BME280;58975;51.978;8.472;2023-08-20T02:49:39;100956.03;;;18.37;100.00
4858;BME280;58975;51.978;8.472;2023-08-20T02:54:35;100965.31;;;18.43;100.00
4858;BME280;58975;51.978;8.472;2023-08-20T02:59:32;100971.50;;;18.53;100.00
4858;BME280;58975;51.978;8.472;2023-08-20T03:04:28;100974.22;;;18.61;100.00
4858;BME280;58975;51.978;8.472;2023-08-20T03:09:25;100974.75;;;18.65;100.00
4858;BME280;58975;51.978;8.472;2023-08-20T03:14:22;100964.81;;;18.65;100.00
4858;BME280;58975;51.978;8.472;2023-08-20T03:19:21;100952.16;;;18.66;100.00
4858;BME280;58975;51.978;8.472;2023-08-20T03:24:18;100946.81;;;18.74;100.00
4858;BME280;58975;51.978;8.472;2023-08-20T03:29:14;100942.19;;;18.66;100.00
4858;BME280;58975;51.978;8.472;2023-08-20T03:34:11;100936.66;;;18.68;100.00
4858;BME280;58975;51.978;8.472;2023-08-20T03:39:07;100934.94;;;18.67;100.00
4858;BME280;58975;51.978;8.472;2023-08-20T03:44:04;100934.25;;;18.57;100.00
4858;BME280;58975;51.978;8.472;2023-08-20T03:49:01;100915.50;;;18.55;100.00
4858;BME280;58975;51.978;8.472;2023-08-20T03:53:58;100924.03;;;18.42;100.00
4858;BME280;58975;51.978;8.472;2023-08-20T03:58:55;100932.75;;;18.36;100.00
4858;BME280;58975;51.978;8.472;2023-08-20T04:03:51;100954.34;;;18.36;100.00
4858;BME280;58975;51.978;8.472;2023-08-20T04:08:48;100965.97;;;18.37;100.00
4858;BME280;58975;51.978;8.472;2023-08-20T04:13:45;100953.47;;;18.36;100.00
4858;BME280;58975;51.978;8.472;2023-08-20T04:18:41;100953.97;;;18.31;100.00
4858;BME280;58975;51.978;8.472;2023-08-20T04:23:38;100956.97;;;18.28;100.00
4858;BME280;58975;51.978;8.472;2023-08-20T04:28:34;100956.25;;;18.18;100.00
4858;BME280;58975;51.978;8.472;2023-08-20T04:33:31;100970.41;;;18.20;100.00
4858;BME280;58975;51.978;8.472;2023-08-20T04:38:27;100969.25;;;18.23;100.00
4858;BME280;58975;51.978;8.472;2023-08-20T04:43:24;100978.56;;;18.28;100.00
4858;BME280;58975;51.978;8.472;2023-08-20T04:48:20;100975.91;;;18.36;100.00
4858;BME280;58975;51.978;8.472;2023-08-20T04:53:17;100988.44;;;18.46;100.00
4858;BME280;58975;51.978;8.472;2023-08-20T04:58:13;100976.44;;;18.40;100.00
4858;BME280;58975;51.978;8.472;2023-08-20T05:03:10;100974.63;;;18.49;100.00
4858;BME280;58975;51.978;8.472;2023-08-20T05:08:07;100970.63;;;18.53;100.00
4858;BME280;58975;51.978;8.472;2023-08-20T05:13:04;100961.81;;;18.51;100.00
4858;BME280;58975;51.978;8.472;2023-08-20T05:18:01;100958.44;;;18.49;100.00
4858;BME280;58975;51.978;8.472;2023-08-20T05:22:57;100966.75;;;18.55;100.00
4858;BME280;58975;51.978;8.472;2023-08-20T05:27:54;100960.25;;;18.66;100.00
4858;BME280;58975;51.978;8.472;2023-08-20T05:32:50;100957.94;;;18.79;100.00
4858;BME280;58975;51.978;8.472;2023-08-20T05:37:47;100960.03;;;18.93;100.00
4858;BME280;58975;51.978;8.472;2023-08-20T05:42:43;100968.88;;;19.19;100.00
4858;BME280;58975;51.978;8.472;2023-08-20T05:47:39;100972.31;;;19.54;100.00
4858;BME280;58975;51.978;8.472;2023-08-20T05:52:36;100956.13;;;19.94;100.00
4858;BME280;58975;51.978;8.472;2023-08-20T05:57:33;100957.75;;;20.19;100.00
4858;BME280;58975;51.978;8.472;2023-08-20T06:02:30;100945.09;;;20.36;100.00
4858;BME280;58975;51.978;8.472;2023-08-20T06:07:26;100950.13;;;20.39;100.00
4858;BME280;58975;51.978;8.472;2023-08-20T06:12:23;100962.03;;;20.77;100.00
4858;BME280;58975;51.978;8.472;2023-08-20T06:17:20;100965.25;;;21.11;100.00
4858;BME280;58975;51.978;8.472;2023-08-20T06:22:17;100970.22;;;21.31;100.00
4858;BME280;58975;51.978;8.472;2023-08-20T06:27:13;100965.19;;;21.50;100.00
4858;BME280;58975;51.978;8.472;2023-08-20T06:32:10;100968.53;;;21.52;100.00
4858;BME280;58975;51.978;8.472;2023-08-20T06:37:06;100981.44;;;21.73;100.00
4858;BME280;58975;51.978;8.472;2023-08-20T06:42:03;100977.72;;;22.11;100.00
4858;BME280;58975;51.978;8.472;2023-08-20T06:47:00;100982.19;;;22.42;100.00
4858;BME280;58975;51.978;8.472;2023-08-20T06:51:56;100976.09;;;22.54;100.00
4858;BME280;58975;51.978;8.472;2023-08-20T06:56:52;100973.28;;;22.62;100.00
4858;BME280;58975;51.978;8.472;2023-08-20T07:01:49;100972.66;;;22.75;100.00
4858;BME280;58975;51.978;8.472;2023-08-20T07:06:45;100972.47;;;22.91;100.00
4858;BME280;58975;51.978;8.472;2023-08-20T07:11:42;100973.44;;;23.20;100.00
4858;BME280;58975;51.978;8.472;2023-08-20T07:16:39;100977.22;;;23.40;100.00
4858;BME280;58975;51.978;8.472;2023-08-20T07:21:35;100977.13;;;23.48;100.00
4858;BME280;58975;51.978;8.472;2023-08-20T07:26:32;100972.38;;;23.56;100.00
4858;BME280;58975;51.978;8.472;2023-08-20T07:31:30;100981.28;;;23.86;100.00
4858;BME280;58975;51.978;8.472;2023-08-20T07:36:27;100967.97;;;23.98;100.00
4858;BME280;58975;51.978;8.472;2023-08-20T07:41:24;100964.53;;;24.11;100.00
4858;BME280;58975;51.978;8.472;2023-08-20T07:46:21;100960.72;;;24.33;100.00
4858;BME280;58975;51.978;8.472;2023-08-20T07:51:18;100969.00;;;24.46;100.00
4858;BME280;58975;51.978;8.472;2023-08-20T07:56:14;100971.22;;;24.70;100.00
4858;BME280;58975;51.978;8.472;2023-08-20T08:01:11;100967.47;;;24.78;100.00
4858;BME280;58975;51.978;8.472;2023-08-20T08:06:09;100968.25;;;25.00;100.00
4858;BME280;58975;51.978;8.472;2023-08-20T08:11:06;100966.88;;;25.23;100.00
4858;BME280;58975;51.978;8.472;2023-08-20T08:16:02;100966.50;;;25.39;100.00
4858;BME280;58975;51.978;8.472;2023-08-20T08:20:59;100972.38;;;25.36;100.00
4858;BME280;58975;51.978;8.472;2023-08-20T08:25:55;100978.66;;;25.43;100.00
4858;BME280;58975;51.978;8.472;2023-08-20T08:30:52;100987.78;;;25.83;100.00
4858;BME280;58975;51.978;8.472;2023-08-20T08:35:48;100979.19;;;26.13;100.00
4858;BME280;58975;51.978;8.472;2023-08-20T08:40:45;100970.34;;;26.50;100.00
4858;BME280;58975;51.978;8.472;2023-08-20T08:45:45;100979.53;;;26.69;100.00
4858;BME280;58975;51.978;8.472;2023-08-20T08:50:43;100969.41;;;26.82;100.00
4858;BME280;58975;51.978;8.472;2023-08-20T08:55:39;100985.38;;;26.86;100.00
4858;BME280;58975;51.978;8.472;2023-08-20T09:00:38;100990.84;;;26.92;100.00
4858;BME280;58975;51.978;8.472;2023-08-20T09:06:00;100979.19;;;27.16;100.00
4858;BME280;58975;51.978;8.472;2023-08-20T09:11:00;100976.50;;;27.03;100.00
4858;BME280;58975;51.978;8.472;2023-08-20T09:15:59;100978.44;;;27.34;100.00
4858;BME280;58975;51.978;8.472;2023-08-20T09:20:56;100972.56;;;27.68;100.00
4858;BME280;58975;51.978;8.472;2023-08-20T09:25:53;100969.38;;;27.40;100.00
4858;BME280;58975;51.978;8.472;2023-08-20T09:30:55;100970.91;;;27.29;100.00
4858;BME280;58975;51.978;8.472;2023-08-20T09:35:52;100967.75;;;26.81;100.00
4858;BME280;58975;51.978;8.472;2023-08-20T09:40:52;100967.09;;;26.93;100.00
4858;BME280;58975;51.978;8.472;2023-08-20T09:45:49;100965.44;;;27.67;100.00
4858;BME280;58975;51.978;8.472;2023-08-20T09:50:47;100977.84;;;28.26;100.00
4858;BME280;58975;51.978;8.472;2023-08-20T09:55:44;100977.19;;;26.92;100.00
4858;BME280;58975;51.978;8.472;2023-08-20T10:00:41;100978.41;;;27.47;100.00
4858;BME280;58975;51.978;8.472;2023-08-20T10:05:38;100984.97;;;28.27;100.00
4858;BME280;58975;51.978;8.472;2023-08-20T10:10:34;100984.91;;;28.77;100.00
4858;BME280;58975;51.978;8.472;2023-08-20T10:15:31;100978.47;;;29.19;99.17
4858;BME280;58975;51.978;8.472;2023-08-20T10:20:29;100972.66;;;27.87;100.00
4858;BME280;58975;51.978;8.472;2023-08-20T10:25:29;100980.78;;;27.68;100.00
4858;BME280;58975;51.978;8.472;2023-08-20T10:30:26;100976.34;;;27.99;94.55
4858;BME280;58975;51.978;8.472;2023-08-20T10:35:26;100977.31;;;27.55;100.00
4858;BME280;58975;51.978;8.472;2023-08-20T10:51:17;100978.34;;;28.96;85.19
4858;BME280;58975;51.978;8.472;2023-08-20T10:56:15;100962.31;;;29.29;91.60
4858;BME280;58975;51.978;8.472;2023-08-20T11:01:17;100971.81;;;28.17;91.79
4858;BME280;58975;51.978;8.472;2023-08-20T11:06:15;100968.75;;;27.38;99.18
4858;BME280;58975;51.978;8.472;2023-08-20T11:11:12;100976.47;;;26.32;100.00
4858;BME280;58975;51.978;8.472;2023-08-20T11:16:09;100974.16;;;26.03;100.00
4858;BME280;58975;51.978;8.472;2023-08-20T11:21:07;100976.66;;;25.92;100.00
4858;BME280;58975;51.978;8.472;2023-08-20T11:26:04;100988.41;;;25.85;100.00
4858;BME280;58975;51.978;8.472;2023-08-20T11:31:01;100998.66;;;25.57;100.00
4858;BME280;58975;51.978;8.472;2023-08-20T11:35:57;100990.53;;;26.36;100.00
4858;BME280;58975;51.978;8.472;2023-08-20T11:40:54;100982.00;;;27.48;100.00
4858;BME280;58975;51.978;8.472;2023-08-20T11:45:50;100982.63;;;28.06;100.00
4858;BME280;58975;51.978;8.472;2023-08-20T11:50:47;100982.16;;;27.53;100.00
4858;BME280;58975;51.978;8.472;2023-08-20T11:55:43;100977.03;;;28.19;100.00
4858;BME280;58975;51.978;8.472;2023-08-20T12:00:40;100971.91;;;27.48;100.00
4858;BME280;58975;51.978;8.472;2023-08-20T12:05:41;100977.63;;;26.89;100.00
4858;BME280;58975;51.978;8.472;2023-08-20T12:10:41;100967.66;;;27.01;100.00
4858;BME280;58975;51.978;8.472;2023-08-20T12:15:38;100954.00;;;28.02;100.00
4858;BME280;58975;51.978;8.472;2023-08-20T12:20:35;100950.28;;;28.39;96.04
4858;BME280;58975;51.978;8.472;2023-08-20T12:25:33;100943.16;;;27.89;100.00
4858;BME280;58975;51.978;8.472;2023-08-20T12:30:31;100945.34;;;28.30;93.77
4858;BME280;58975;51.978;8.472;2023-08-20T12:35:32;100941.03;;;27.66;91.97
4858;BME280;58975;51.978;8.472;2023-08-20T12:40:28;100937.69;;;27.89;100.00
4858;BME280;58975;51.978;8.472;2023-08-20T12:45:25;100948.16;;;26.91;100.00
4858;BME280;58975;51.978;8.472;2023-08-20T12:50:22;100943.75;;;26.97;100.00
4858;BME280;58975;51.978;8.472;2023-08-20T12:55:18;100951.84;;;27.54;100.00
4858;BME280;58975;51.978;8.472;2023-08-20T13:00:15;100945.72;;;27.84;100.00
4858;BME280;58975;51.978;8.472;2023-08-20T13:05:13;100940.72;;;27.49;97.06
4858;BME280;58975;51.978;8.472;2023-08-20T13:10:10;100939.94;;;26.98;99.15
4858;BME280;58975;51.978;8.472;2023-08-20T13:15:08;100938.69;;;27.00;93.97
4858;BME280;58975;51.978;8.472;2023-08-20T13:20:06;100937.13;;;27.55;100.00
4858;BME280;58975;51.978;8.472;2023-08-20T13:25:05;100930.13;;;28.52;91.42
4858;BME280;58975;51.978;8.472;2023-08-20T13:30:01;100936.97;;;27.75;98.73
4858;BME280;58975;51.978;8.472;2023-08-20T13:34:59;100927.13;;;27.36;99.04
4858;BME280;58975;51.978;8.472;2023-08-20T13:39:55;100931.88;;;28.28;94.85
4858;BME280;58975;51.978;8.472;2023-08-20T13:44:52;100920.31;;;27.77;95.96
4858;BME280;58975;51.978;8.472;2023-08-20T13:49:48;100918.56;;;27.57;100.00
4858;BME280;58975;51.978;8.472;2023-08-20T13:54:45;100921.50;;;27.87;96.82
4858;BME280;58975;51.978;8.472;2023-08-20T13:59:42;100917.03;;;27.30;97.70
4858;BME280;58975;51.978;8.472;2023-08-20T14:04:38;100919.69;;;27.12;100.00
4858;BME280;58975;51.978;8.472;2023-08-20T14:09:35;100921.38;;;27.13;100.00
4858;BME280;58975;51.978;8.472;2023-08-20T14:14:32;100915.84;;;27.82;100.00
4858;BME280;58975;51.978;8.472;2023-08-20T14:19:28;100913.53;;;27.54;100.00
4858;BME280;58975;51.978;8.472;2023-08-20T14:24:25;100918.75;;;26.80;100.00
4858;BME280;58975;51.978;8.472;2023-08-20T14:29:21;100917.72;;;26.74;100.00
4858;BME280;58975;51.978;8.472;2023-08-20T14:34:18;100902.59;;;27.54;100.00
4858;BME280;58975;51.978;8.472;2023-08-20T14:39:14;100906.47;;;27.09;100.00
4858;BME280;58975;51.978;8.472;2023-08-20T14:44:11;100903.56;;;27.35;100.00
4858;BME280;58975;51.978;8.472;2023-08-20T14:49:07;100902.16;;;27.57;100.00
4858;BME280;58975;51.978;8.472;2023-08-20T14:54:04;100899.91;;;27.16;99.73
4858;BME280;58975;51.978;8.472;2023-08-20T14:59:00;100896.13;;;27.42;96.40
4858;BME280;58975;51.978;8.472;2023-08-20T15:03:57;100899.50;;;27.06;100.00
4858;BME280;58975;51.978;8.472;2023-08-20T15:08:53;100907.13;;;26.98;100.00
4858;BME280;58975;51.978;8.472;2023-08-20T15:13:50;100907.13;;;27.04;100.00
4858;BME280;58975;51.978;8.472;2023-08-20T15:18:48;100906.13;;;26.79;100.00
4858;BME280;58975;51.978;8.472;2023-08-20T15:23:44;100907.75;;;26.42;100.00
4858;BME280;58975;51.978;8.472;2023-08-20T15:28:41;100898.44;;;26.63;100.00
4858;BME280;58975;51.978;8.472;2023-08-20T15:33:37;100899.66;;;26.67;100.00
4858;BME280;58975;51.978;8.472;2023-08-20T15:38:34;100904.78;;;26.57;100.00
4858;BME280;58975;51.978;8.472;2023-08-20T15:43:30;100910.91;;;26.39;100.00
4858;BME280;58975;51.978;8.472;2023-08-20T15:48:27;100909.00;;;26.53;100.00
4858;BME280;58975;51.978;8.472;2023-08-20T15:53:23;100900.47;;;26.74;100.00
4858;BME280;58975;51.978;8.472;2023-08-20T15:58:20;100906.50;;;26.38;100.00
4858;BME280;58975;51.978;8.472;2023-08-20T16:03:16;100908.41;;;26.38;100.00
4858;BME280;58975;51.978;8.472;2023-08-20T16:08:13;100909.78;;;26.60;100.00
4858;BME280;58975;51.978;8.472;2023-08-20T16:13:09;100899.50;;;27.13;100.00
4858;BME280;58975;51.978;8.472;2023-08-20T16:18:06;100897.31;;;27.21;100.00
4858;BME280;58975;51.978;8.472;2023-08-20T16:23:02;100902.16;;;26.81;100.00
4858;BME280;58975;51.978;8.472;2023-08-20T16:27:59;100897.13;;;26.72;100.00
4858;BME280;58975;51.978;8.472;2023-08-20T16:32:55;100893.59;;;26.65;100.00
4858;BME280;58975;51.978;8.472;2023-08-20T16:37:52;100889.81;;;26.59;100.00
4858;BME280;58975;51.978;8.472;2023-08-20T16:42:49;100898.44;;;26.69;100.00
4858;BME280;58975;51.978;8.472;2023-08-20T16:47:45;100900.59;;;27.37;100.00
4858;BME280;58975;51.978;8.472;2023-08-20T16:52:42;100894.13;;;28.48;90.30
4858;BME280;58975;51.978;8.472;2023-08-20T16:57:38;100901.09;;;29.58;82.64
4858;BME280;58975;51.978;8.472;2023-08-20T17:02:35;100897.94;;;30.08;64.52
4858;BME280;58975;51.978;8.472;2023-08-20T17:07:32;100900.28;;;31.31;59.70
4858;BME280;58975;51.978;8.472;2023-08-20T17:12:28;100902.78;;;30.76;62.27
4858;BME280;58975;51.978;8.472;2023-08-20T17:17:28;100900.56;;;31.01;61.83
4858;BME280;58975;51.978;8.472;2023-08-20T17:22:25;100909.03;;;30.25;65.26
4858;BME280;58975;51.978;8.472;2023-08-20T17:27:22;100906.47;;;29.65;73.89
4858;BME280;58975;51.978;8.472;2023-08-20T17:32:19;100913.47;;;28.53;83.66
4858;BME280;58975;51.978;8.472;2023-08-20T17:37:15;100917.56;;;28.62;80.60
4858;BME280;58975;51.978;8.472;2023-08-20T17:42:12;100916.06;;;28.48;82.14
4858;BME280;58975;51.978;8.472;2023-08-20T17:47:10;100916.72;;;28.01;89.66
4858;BME280;58975;51.978;8.472;2023-08-20T17:52:06;100919.94;;;27.98;85.98
4858;BME280;58975;51.978;8.472;2023-08-20T17:57:03;100926.78;;;27.19;92.90
4858;BME280;58975;51.978;8.472;2023-08-20T18:01:59;100930.97;;;27.22;95.92
4858;BME280;58975;51.978;8.472;2023-08-20T18:06:56;100931.53;;;26.22;100.00
4858;BME280;58975;51.978;8.472;2023-08-20T18:11:52;100935.97;;;24.97;100.00
4858;BME280;58975;51.978;8.472;2023-08-20T18:16:49;100938.81;;;24.41;100.00
4858;BME280;58975;51.978;8.472;2023-08-20T18:21:45;100943.66;;;24.18;100.00
4858;BME280;58975;51.978;8.472;2023-08-20T18:26:42;100952.63;;;23.90;100.00
4858;BME280;58975;51.978;8.472;2023-08-20T18:31:38;100948.19;;;23.62;100.00
4858;BME280;58975;51.978;8.472;2023-08-20T18:36:35;100951.56;;;23.42;100.00
4858;BME280;58975;51.978;8.472;2023-08-20T18:41:31;100957.78;;;23.22;100.00
4858;BME280;58975;51.978;8.472;2023-08-20T18:46:28;100958.78;;;22.99;100.00
4858;BME280;58975;51.978;8.472;2023-08-20T18:51:24;100967.81;;;22.85;100.00
4858;BME280;58975;51.978;8.472;2023-08-20T18:56:24;100979.56;;;22.63;100.00
4858;BME280;58975;51.978;8.472;2023-08-20T19:01:20;100994.72;;;22.43;100.00
4858;BME280;58975;51.978;8.472;2023-08-20T19:06:17;100994.16;;;22.33;100.00
4858;BME280;58975;51.978;8.472;2023-08-20T19:11:14;101001.06;;;22.21;100.00
4858;BME280;58975;51.978;8.472;2023-08-20T19:16:10;101010.94;;;21.99;100.00
4858;BME280;58975;51.978;8.472;2023-08-20T19:21:07;101011.41;;;21.49;100.00
4858;BME280;58975;51.978;8.472;2023-08-20T19:26:04;101016.81;;;21.26;100.00
4858;BME280;58975;51.978;8.472;2023-08-20T19:31:00;101020.59;;;21.09;100.00
4858;BME280;58975;51.978;8.472;2023-08-20T19:35:56;101031.31;;;20.94;100.00
4858;BME280;58975;51.978;8.472;2023-08-20T19:40:53;101034.38;;;20.91;100.00
4858;BME280;58975;51.978;8.472;2023-08-20T19:45:52;101039.81;;;20.83;100.00
4858;BME280;58975;51.978;8.472;2023-08-20T19:50:49;101050.22;;;20.55;100.00
4858;BME280;58975;51.978;8.472;2023-08-20T19:55:45;101046.34;;;20.50;100.00
4858;BME280;58975;51.978;8.472;2023-08-20T20:00:42;101046.00;;;20.53;100.00
4858;BME280;58975;51.978;8.472;2023-08-20T20:05:38;101036.88;;;20.54;100.00
4858;BME280;58975;51.978;8.472;2023-08-20T20:10:35;101044.28;;;20.52;100.00
4858;BME280;58975;51.978;8.472;2023-08-20T20:15:31;101043.63;;;20.50;100.00
4858;BME280;58975;51.978;8.472;2023-08-20T20:20:28;101048.06;;;20.35;100.00
4858;BME280;58975;51.978;8.472;2023-08-20T20:25:24;101043.66;;;20.34;100.00
4858;BME280;58975;51.978;8.472;2023-08-20T20:30:21;101048.06;;;20.35;100.00
4858;BME280;58975;51.978;8.472;2023-08-20T20:35:17;101043.66;;;20.34;100.00
4858;BME280;58975;51.978;8.472;2023-08-20T20:40:14;101052.41;;;20.19;100.00
4858;BME280;58975;51.978;8.472;2023-08-20T20:45:10;101045.66;;;20.07;100.00
4858;BME280;58975;51.978;8.472;2023-08-20T20:50:07;101034.00;;;19.91;100.00
4858;BME280;58975;51.978;8.472;2023-08-20T20:55:04;101039.22;;;19.92;100.00
4858;BME280;58975;51.978;8.472;2023-08-20T21:00:01;101039.06;;;19.94;100.00
4858;BME280;58975;51.978;8.472;2023-08-20T21:04:58;101037.56;;;19.91;100.00
4858;BME280;58975;51.978;8.472;2023-08-20T21:09:55;101033.16;;;19.90;100.00
4858;BME280;58975;51.978;8.472;2023-08-20T21:14:51;101040.56;;;19.88;100.00
4858;BME280;58975;51.978;8.472;2023-08-20T21:19:48;101039.22;;;19.76;100.00
4858;BME280;58975;51.978;8.472;2023-08-20T21:24:44;101050.19;;;19.66;100.00
4858;BME280;58975;51.978;8.472;2023-08-20T21:29:41;101050.03;;;19.68;100.00
4858;BME280;58975;51.978;8.472;2023-08-20T21:34:38;101050.03;;;19.68;100.00
4858;BME280;58975;51.978;8.472;2023-08-20T21:39:34;101057.44;;;19.58;100.00
4858;BME280;58975;51.978;8.472;2023-08-20T21:44:31;101051.00;;;19.51;100.00
4858;BME280;58975;51.978;8.472;2023-08-20T21:49:27;101046.88;;;19.38;100.00
4858;BME280;58975;51.978;8.472;2023-08-20T21:54:24;101046.22;;;19.36;100.00
4858;BME280;58975;51.978;8.472;2023-08-20T21:59:20;101056.16;;;19.28;100.00
4858;BME280;58975;51.978;8.472;2023-08-20T22:04:17;101054.75;;;19.16;100.00
4858;BME280;58975;51.978;8.472;2023-08-20T22:09:13;101064.28;;;19.02;100.00
4858;BME280;58975;51.978;8.472;2023-08-20T22:14:09;101058.19;;;18.92;100.00
4858;BME280;58975;51.978;8.472;2023-08-20T22:19:06;101056.13;;;18.86;100.00
4858;BME280;58975;51.978;8.472;2023-08-20T22:24:02;101040.88;;;18.69;100.00
4858;BME280;58975;51.978;8.472;2023-08-20T22:28:59;101046.88;;;18.63;100.00
4858;BME280;58975;51.978;8.472;2023-08-20T22:33:56;101045.56;;;18.67;100.00
4858;BME280;58975;51.978;8.472;2023-08-20T22:38:52;101043.72;;;18.67;100.00
4858;BME280;58975;51.978;8.472;2023-08-20T22:43:49;101041.00;;;18.67;100.00
4858;BME280;58975;51.978;8.472;2023-08-20T22:48:45;101037.94;;;18.62;100.00
4858;BME280;58975;51.978;8.472;2023-08-20T22:53:42;101045.75;;;18.65;100.00
4858;BME280;58975;51.978;8.472;2023-08-20T22:58:38;101036.38;;;18.77;100.00
4858;BME280;58975;51.978;8.472;2023-08-20T23:03:35;101037.38;;;18.76;100.00
4858;BME280;58975;51.978;8.472;2023-08-20T23:08:31;101038.50;;;18.66;100.00
4858;BME280;58975;51.978;8.472;2023-08-20T23:13:28;101049.06;;;18.59;100.00
4858;BME280;58975;51.978;8.472;2023-08-20T23:18:24;101042.38;;;18.71;100.00
4858;BME280;58975;51.978;8.472;2023-08-20T23:23:22;101038.38;;;18.75;100.00
4858;BME280;58975;51.978;8.472;2023-08-20T23:28:19;101043.97;;;18.56;100.00
4858;BME280;58975;51.978;8.472;2023-08-20T23:33:17;101036.94;;;18.37;100.00
4858;BME280;58975;51.978;8.472;2023-08-20T23:38:14;101037.44;;;18.41;100.00
4858;BME280;58975;51.978;8.472;2023-08-20T23:43:10;101036.94;;;18.37;100.00
4858;BME280;58975;51.978;8.472;2023-08-20T23:48:06;101040.75;;;18.27;100.00
4858;BME280;58975;51.978;8.472;2023-08-20T23:53:03;101023.59;;;18.36;100.00
4858;BME280;58975;51.978;8.472;2023-08-20T23:58:00;101017.47;;;18.26;100.00
